Time;durP1;ratioP1;P1;durP2;ratioP2;P2;SDS_P1;SDS_P2;PMS_P1;PMS_P2;Temp;Humidity;BMP_temperature;BMP_pressure;BME280_temperature;BME280_humidity;BME280_pressure;Samples;Min_cycle;Max_cycle;Signal;HPM_P1;HPM_P2
2021/12/25 00:01:44;;;;;;;2.65;1.73;;;;;;;7.15;89.45;95144.19;5032410;28;20443;-74
2021/12/25 00:04:11;;;;;;;4.50;1.85;;;;;;;7.18;89.44;95135.44;5031860;28;20049;-73
2021/12/25 00:06:37;;;;;;;3.03;1.85;;;;;;;7.20;89.47;95141.31;5031455;28;20053;-72
2021/12/25 00:09:05;;;;;;;3.55;1.77;;;;;;;7.24;89.19;95144.94;5031850;28;20056;-74
2021/12/25 00:11:32;;;;;;;3.80;1.80;;;;;;;7.25;88.91;95143.81;5034704;28;20041;-74
2021/12/25 00:13:58;;;;;;;2.63;1.50;;;;;;;7.28;88.39;95148.59;5032026;28;20393;-74
2021/12/25 00:16:25;;;;;;;2.95;1.55;;;;;;;7.26;88.58;95145.44;5031738;28;20042;-74
2021/12/25 00:18:53;;;;;;;3.50;1.35;;;;;;;7.26;88.46;95140.03;5032103;28;20046;-74
2021/12/25 00:21:19;;;;;;;3.63;1.88;;;;;;;7.26;87.98;95145.44;5031547;28;20508;-73
2021/12/25 00:23:46;;;;;;;3.10;1.77;;;;;;;7.22;88.19;95147.19;5031859;28;20499;-74
2021/12/25 00:26:25;;;;;;;3.22;2.00;;;;;;;7.20;88.11;95141.31;5031259;28;20045;-75
2021/12/25 00:29:00;;;;;;;3.72;1.17;;;;;;;7.18;88.09;95152.47;5031788;28;20468;-74
2021/12/25 00:31:47;;;;;;;2.45;1.65;;;;;;;7.15;88.43;95155.00;5031402;28;20674;-74
2021/12/25 00:34:15;;;;;;;2.83;1.80;;;;;;;7.15;88.46;95149.59;5031185;28;20045;-74
2021/12/25 00:36:42;;;;;;;3.55;1.70;;;;;;;7.13;88.47;95151.84;5031669;28;20120;-74
2021/12/25 00:39:08;;;;;;;3.70;1.90;;;;;;;7.10;88.46;95153.31;5031194;28;20071;-73
2021/12/25 00:41:35;;;;;;;4.40;2.00;;;;;;;7.10;88.69;95147.06;5033951;28;20496;-74
2021/12/25 00:44:01;;;;;;;2.58;1.60;;;;;;;7.09;88.51;95153.63;5031634;28;20064;-72
2021/12/25 00:46:28;;;;;;;2.13;1.50;;;;;;;7.03;89.13;95148.38;5031694;28;20037;-74
2021/12/25 00:48:54;;;;;;;2.92;1.52;;;;;;;7.02;89.09;95149.50;5031369;28;20045;-74
2021/12/25 00:51:22;;;;;;;2.92;1.60;;;;;;;7.03;89.45;95140.25;5030920;28;20064;-74
2021/12/25 00:53:49;;;;;;;3.45;1.77;;;;;;;7.02;89.77;95135.19;5031384;28;20054;-74
2021/12/25 00:56:15;;;;;;;3.42;1.80;;;;;;;7.02;90.29;95141.38;5030961;28;20053;-74
2021/12/25 00:58:42;;;;;;;3.47;1.70;;;;;;;6.96;90.20;95142.69;5031449;28;20049;-74
2021/12/25 01:01:08;;;;;;;2.83;1.60;;;;;;;6.94;90.70;95139.53;5030971;28;20044;-74
2021/12/25 01:03:35;;;;;;;3.55;2.10;;;;;;;6.93;91.10;95143.31;5031227;28;20497;-75
2021/12/25 01:06:02;;;;;;;3.75;1.90;;;;;;;6.93;91.20;95154.16;5030797;28;20049;-72
2021/12/25 01:08:29;;;;;;;3.15;1.98;;;;;;;6.95;91.41;95154.63;5031241;28;20055;-74
2021/12/25 01:10:56;;;;;;;3.55;1.83;;;;;;;6.92;91.51;95157.97;5033758;28;20054;-74
2021/12/25 01:13:26;;;;;;;3.47;1.45;;;;;;;6.85;92.00;95151.50;5030601;28;20137;-74
2021/12/25 01:16:06;;;;;;;3.83;1.85;;;;;;;6.79;92.32;95148.16;5031218;28;20045;-74
2021/12/25 01:21:41;;;;;;;5.22;1.90;;;;;;;6.76;93.30;95152.28;5030593;28;20056;-74
2021/12/25 01:27:12;;;;;;;3.22;2.03;;;;;;;6.70;93.88;95139.28;5030761;28;20524;-75
2021/12/25 01:29:45;;;;;;;2.80;1.77;;;;;;;6.72;93.66;95142.44;5030878;28;20045;-74
2021/12/25 01:32:52;;;;;;;3.97;2.00;;;;;;;6.71;93.91;95146.25;5030545;28;20050;-74
2021/12/25 01:38:09;;;;;;;4.90;2.28;;;;;;;6.71;93.63;95151.66;5028805;28;20095;-74
2021/12/25 01:40:51;;;;;;;3.30;1.98;;;;;;;6.72;93.67;95147.84;5033317;28;20496;-74
2021/12/25 01:48:49;;;;;;;4.50;2.30;;;;;;;6.71;94.00;95146.25;5030877;28;20112;-74
2021/12/25 01:51:15;;;;;;;5.15;2.10;;;;;;;6.72;93.72;95143.22;5030544;28;20072;-74
2021/12/25 01:53:42;;;;;;;3.80;2.20;;;;;;;6.73;93.47;95142.13;5030650;28;20064;-74
2021/12/25 01:56:10;;;;;;;5.32;2.38;;;;;;;6.76;93.62;95148.78;5030482;28;20057;-74
2021/12/25 01:58:37;;;;;;;4.15;1.98;;;;;;;6.78;93.33;95135.72;5030772;28;20053;-74
2021/12/25 02:01:07;;;;;;;3.72;2.05;;;;;;;6.79;93.53;95132.72;5030370;28;20484;-74
2021/12/25 02:03:36;;;;;;;5.75;2.60;;;;;;;6.82;93.26;95136.69;5030715;28;20055;-74
2021/12/25 02:06:05;;;;;;;4.00;2.05;;;;;;;6.84;93.10;95144.47;5030275;28;20038;-73
2021/12/25 02:08:33;;;;;;;3.85;2.17;;;;;;;6.80;93.01;95136.22;5030680;28;20134;-74
2021/12/25 02:11:00;;;;;;;4.65;2.10;;;;;;;6.79;93.22;95132.72;5033438;28;20119;-74
2021/12/25 02:13:28;;;;;;;4.68;2.50;;;;;;;6.82;93.17;95130.47;5030252;28;20048;-74
2021/12/25 02:15:56;;;;;;;4.40;2.17;;;;;;;6.84;93.41;95126.34;5030607;28;20045;-74
2021/12/25 02:18:27;;;;;;;5.47;2.75;;;;;;;6.85;93.32;95130.63;5030043;28;20041;-74
2021/12/25 02:21:02;;;;;;;4.28;2.35;;;;;;;6.85;93.28;95122.50;5030687;28;20050;-74
2021/12/25 02:23:31;;;;;;;5.50;2.22;;;;;;;6.89;93.18;95128.06;5029945;28;20034;-74
2021/12/25 02:25:58;;;;;;;4.22;2.25;;;;;;;6.91;93.22;95121.22;5030356;28;20503;-74
2021/12/25 02:28:26;;;;;;;6.65;2.33;;;;;;;6.90;92.38;95116.94;5030035;28;20045;-74
2021/12/25 02:30:56;;;;;;;3.92;2.33;;;;;;;6.86;92.47;95118.69;5033060;28;20045;-74
2021/12/25 02:33:25;;;;;;;6.07;2.40;;;;;;;6.82;92.82;95120.44;5033421;28;20049;-74
2021/12/25 02:35:51;;;;;;;3.88;2.47;;;;;;;6.78;92.94;95114.88;5034064;28;20254;-74
2021/12/25 02:38:19;;;;;;;4.78;2.47;;;;;;;6.80;93.53;95123.47;5033385;28;20408;-74
2021/12/25 02:40:46;;;;;;;5.28;2.30;;;;;;;6.83;93.19;95122.03;5043750;28;20049;-74
2021/12/25 02:43:12;;;;;;;5.35;2.50;;;;;;;6.84;93.26;95115.53;5053345;28;20060;-74
2021/12/25 02:45:40;;;;;;;3.65;2.40;;;;;;;6.88;93.17;95115.66;5053760;28;20128;-74
2021/12/25 02:48:09;;;;;;;5.75;3.40;;;;;;;6.91;92.88;95120.41;5053418;28;20056;-74
2021/12/25 02:50:38;;;;;;;5.40;2.58;;;;;;;6.90;93.05;95121.53;5053727;28;20069;-74
2021/12/25 02:53:08;;;;;;;5.18;2.58;;;;;;;6.88;92.84;95121.84;5053219;28;20041;-74
2021/12/25 02:55:36;;;;;;;6.25;2.63;;;;;;;6.79;92.62;95116.50;5053540;28;20092;-74
2021/12/25 02:58:03;;;;;;;4.60;2.40;;;;;;;6.76;92.97;95119.03;5053120;28;20071;-73
2021/12/25 03:00:33;;;;;;;4.65;2.47;;;;;;;6.78;93.31;95120.28;5053493;28;20049;-74
2021/12/25 03:03:03;;;;;;;6.28;2.70;;;;;;;6.75;93.20;95120.16;5053512;28;20410;-74
2021/12/25 03:05:29;;;;;;;4.70;2.40;;;;;;;6.75;93.75;95125.56;5053248;28;20539;-74
2021/12/25 03:07:56;;;;;;;4.90;2.58;;;;;;;6.77;94.01;95117.91;5053399;28;20045;-74
2021/12/25 03:10:22;;;;;;;4.47;2.72;;;;;;;6.80;93.95;95117.28;5052685;28;20526;-74
2021/12/25 03:12:54;;;;;;;4.90;2.75;;;;;;;6.80;93.60;95111.88;5053217;28;20041;-74
2021/12/25 03:15:29;;;;;;;4.90;2.90;;;;;;;6.81;93.86;95113.44;5052887;28;20045;-74
2021/12/25 03:17:58;;;;;;;6.78;3.22;;;;;;;6.80;93.80;95112.66;5052944;28;20431;-75
2021/12/25 03:20:25;;;;;;;7.13;3.17;;;;;;;6.82;93.97;95112.31;5052791;28;20041;-74
2021/12/25 03:22:52;;;;;;;5.47;3.10;;;;;;;6.86;93.34;95099.75;5053059;28;20037;-75
2021/12/25 03:25:19;;;;;;;6.15;2.85;;;;;;;6.89;93.22;95112.63;5052508;28;20053;-74
2021/12/25 03:27:48;;;;;;;4.75;3.13;;;;;;;6.90;93.13;95111.50;5053135;28;20049;-75
2021/12/25 03:30:17;;;;;;;7.70;3.05;;;;;;;6.88;93.07;95102.13;5052442;28;20056;-74
2021/12/25 03:32:45;;;;;;;7.25;3.03;;;;;;;6.89;93.26;95101.00;5052808;28;20045;-74
2021/12/25 03:35:12;;;;;;;6.32;3.53;;;;;;;6.85;93.11;95098.16;5052532;28;20045;-74
2021/12/25 03:37:38;;;;;;;8.50;3.33;;;;;;;6.87;93.22;95109.44;5052850;28;20049;-74
2021/12/25 03:40:06;;;;;;;6.88;3.20;;;;;;;6.86;93.18;95102.44;5032545;28;20399;-74
2021/12/25 03:42:33;;;;;;;7.10;3.30;;;;;;;6.85;93.46;95098.16;5032932;28;20053;-74
2021/12/25 03:44:59;;;;;;;5.18;3.13;;;;;;;6.84;93.78;95091.16;5032128;28;20038;-75
2021/12/25 03:47:31;;;;;;;4.43;3.10;;;;;;;6.80;93.86;95095.63;5051896;28;20052;-75
2021/12/25 03:58:27;;;;;;;5.95;3.25;;;;;;;6.79;94.57;95088.63;5046626;28;20071;-74
2021/12/25 04:01:00;;;;;;;4.78;3.08;;;;;;;6.78;94.45;95084.31;5052394;28;20056;-74
2021/12/25 04:03:40;;;;;;;7.87;3.30;;;;;;;6.75;94.61;95082.28;5051909;28;20511;-74
2021/12/25 04:06:09;;;;;;;5.90;2.78;;;;;;;6.73;94.68;95088.03;5051859;28;20052;-74
2021/12/25 04:08:41;;;;;;;5.13;3.20;;;;;;;6.72;94.64;95083.72;5052239;28;20051;-74
2021/12/25 04:11:13;;;;;;;6.43;3.00;;;;;;;6.69;94.45;95070.84;5051628;28;20443;-74
2021/12/25 04:13:40;;;;;;;6.70;2.90;;;;;;;6.71;94.81;95065.09;5052162;28;20053;-74
2021/12/25 04:16:07;;;;;;;4.93;3.00;;;;;;;6.72;94.38;95070.19;5042667;28;20067;-74
2021/12/25 04:18:34;;;;;;;7.65;2.92;;;;;;;6.74;94.25;95067.19;5032108;28;20057;-74
2021/12/25 04:21:01;;;;;;;4.72;2.60;;;;;;;6.75;93.55;95068.75;5032073;28;20057;-74
2021/12/25 04:23:28;;;;;;;5.05;2.80;;;;;;;6.70;93.17;95058.13;5031551;28;20037;-74
2021/12/25 04:25:57;;;;;;;5.15;2.80;;;;;;;6.64;92.58;95062.13;5031774;28;20053;-74
2021/12/25 04:28:34;;;;;;;5.28;2.95;;;;;;;6.66;93.16;95062.59;5031600;28;20041;-74
2021/12/25 04:31:20;;;;;;;6.80;3.25;;;;;;;6.66;93.39;95062.59;5032057;28;20468;-74
2021/12/25 04:48:01;;;;;;;5.13;2.65;;;;;;;6.68;94.21;95054.91;5031351;28;20091;-75
2021/12/25 05:01:48;;;;;;;6.82;3.47;;;;;;;6.63;93.46;95053.22;5031010;28;20091;-74
2021/12/25 05:04:19;;;;;;;7.43;3.78;;;;;;;6.61;93.55;95054.63;5030972;28;20107;-74
2021/12/25 05:06:48;;;;;;;6.55;3.70;;;;;;;6.59;93.33;95056.88;5031284;28;20056;-74
2021/12/25 05:09:15;;;;;;;8.35;3.80;;;;;;;6.62;93.27;95045.41;5030931;28;20128;-72
2021/12/25 05:11:42;;;;;;;5.25;3.33;;;;;;;6.66;93.41;95054.47;5031355;28;20548;-72
2021/12/25 05:14:08;;;;;;;7.10;3.83;;;;;;;6.71;92.60;95065.09;5030927;28;20057;-74
2021/12/25 05:16:35;;;;;;;7.90;4.03;;;;;;;6.75;92.40;95066.06;5037915;28;20512;-72
2021/12/25 05:19:01;;;;;;;7.45;3.75;;;;;;;6.75;92.25;95066.06;5031104;28;20053;-74
2021/12/25 05:21:28;;;;;;;10.48;3.72;;;;;;;6.73;92.00;95046.63;5030644;28;20038;-74
2021/12/25 05:23:57;;;;;;;7.22;3.50;;;;;;;6.70;92.24;95050.00;5031484;28;20056;-72
2021/12/25 05:26:24;;;;;;;5.20;3.22;;;;;;;6.71;92.27;95046.97;5030662;28;20037;-72
2021/12/25 05:28:58;;;;;;;6.60;3.75;;;;;;;6.77;91.78;95061.09;5031123;28;20041;-72
2021/12/25 05:31:25;;;;;;;5.88;3.58;;;;;;;6.78;91.70;95059.97;5030707;28;20052;-72
2021/12/25 05:33:52;;;;;;;6.43;3.65;;;;;;;6.77;91.47;95052.97;5031011;28;20061;-72
2021/12/25 05:36:19;;;;;;;5.47;3.47;;;;;;;6.72;91.54;95055.88;5030297;28;20050;-73
2021/12/25 05:38:45;;;;;;;6.13;3.58;;;;;;;6.64;90.66;95045.91;5031078;28;20046;-72
2021/12/25 05:41:13;;;;;;;7.35;3.92;;;;;;;6.54;90.79;95050.53;5030640;28;20050;-72
2021/12/25 05:43:40;;;;;;;6.70;4.18;;;;;;;6.57;90.70;95048.28;5030878;28;20411;-72
2021/12/25 05:46:07;;;;;;;6.40;4.00;;;;;;;6.57;90.88;95048.28;5046012;28;20068;-72
2021/12/25 05:48:35;;;;;;;6.55;3.90;;;;;;;6.60;91.01;95058.47;5050690;28;20049;-72
2021/12/25 05:51:02;;;;;;;6.15;3.47;;;;;;;6.63;92.36;95046.97;5050608;28;20052;-71
2021/12/25 05:53:28;;;;;;;8.65;4.20;;;;;;;6.66;93.17;95049.06;5050827;28;20037;-72
2021/12/25 05:55:55;;;;;;;7.70;3.28;;;;;;;6.70;93.53;95047.28;5050810;28;20411;-72
2021/12/25 05:58:23;;;;;;;6.28;3.55;;;;;;;6.70;93.52;95041.88;5050267;28;20048;-73
2021/12/25 06:00:50;;;;;;;7.35;3.80;;;;;;;6.70;93.45;95041.88;5050661;28;20053;-73
2021/12/25 06:03:16;;;;;;;5.78;3.78;;;;;;;6.68;93.54;95049.50;5050516;28;20045;-73
2021/12/25 06:05:43;;;;;;;7.00;3.30;;;;;;;6.68;93.48;95049.50;5053150;28;20056;-72
2021/12/25 06:08:10;;;;;;;5.40;3.40;;;;;;;6.72;93.70;95053.16;5053989;28;20049;-73
2021/12/25 06:10:36;;;;;;;6.32;2.95;;;;;;;6.73;93.32;95046.63;5054605;28;20060;-73
2021/12/25 06:13:03;;;;;;;6.53;3.50;;;;;;;6.72;93.21;95039.63;5054030;28;20049;-72
2021/12/25 06:15:31;;;;;;;5.95;3.65;;;;;;;6.69;93.29;95037.59;5050239;28;20580;-72
2021/12/25 06:17:58;;;;;;;6.15;3.42;;;;;;;6.67;93.51;95032.50;5034263;28;20073;-73
2021/12/25 06:20:24;;;;;;;5.88;3.28;;;;;;;6.66;93.10;95036.31;5033991;28;20052;-72
2021/12/25 06:22:51;;;;;;;6.97;3.72;;;;;;;6.64;92.80;95035.06;5034150;28;20045;-73
2021/12/25 06:25:18;;;;;;;6.93;3.53;;;;;;;6.64;92.94;95033.16;5033513;28;20462;-73
2021/12/25 06:27:44;;;;;;;6.63;4.10;;;;;;;6.62;93.02;95034.59;5034097;28;20041;-73
2021/12/25 06:30:13;;;;;;;6.00;3.83;;;;;;;6.65;92.93;95033.94;5033732;28;20045;-72
2021/12/25 06:32:41;;;;;;;6.07;3.70;;;;;;;6.64;92.92;95026.97;5034024;28;20046;-73
2021/12/25 06:35:08;;;;;;;5.95;4.03;;;;;;;6.63;92.84;95025.34;5033698;28;20500;-73
2021/12/25 06:37:35;;;;;;;7.28;4.10;;;;;;;6.62;92.85;95029.19;5033917;28;20128;-73
2021/12/25 06:40:02;;;;;;;8.23;4.90;;;;;;;6.63;92.50;95028.06;5033879;28;20045;-71
2021/12/25 06:42:28;;;;;;;8.90;4.78;;;;;;;6.61;92.06;95033.00;5033869;28;20053;-73
2021/12/25 06:44:56;;;;;;;8.80;4.55;;;;;;;6.61;92.11;95033.00;5039610;28;20041;-73
2021/12/25 06:47:22;;;;;;;6.93;4.25;;;;;;;6.61;92.32;95027.59;5033546;28;20057;-73
2021/12/25 06:49:50;;;;;;;10.02;4.60;;;;;;;6.62;92.25;95029.19;5032841;28;20042;-72
2021/12/25 06:52:17;;;;;;;9.23;4.85;;;;;;;6.62;92.32;95024.56;5032980;28;20520;-73
2021/12/25 06:54:43;;;;;;;8.45;4.75;;;;;;;6.62;92.06;95029.19;5032539;28;20449;-73
2021/12/25 06:57:10;;;;;;;7.13;4.80;;;;;;;6.61;92.06;95027.59;5033139;28;20053;-72
2021/12/25 06:59:36;;;;;;;7.78;5.22;;;;;;;6.60;92.28;95034.91;5032373;28;20041;-73
2021/12/25 07:02:03;;;;;;;10.07;5.65;;;;;;;6.58;92.11;95039.03;5032770;28;20057;-73
2021/12/25 07:04:30;;;;;;;9.27;5.97;;;;;;;6.58;92.26;95033.63;5032574;28;20049;-73
2021/12/25 07:06:58;;;;;;;8.60;5.30;;;;;;;6.57;92.01;95026.66;5032785;28;20104;-73
2021/12/25 07:09:24;;;;;;;7.28;5.10;;;;;;;6.59;92.21;95037.97;5032429;28;20045;-73
2021/12/25 07:11:51;;;;;;;8.30;5.30;;;;;;;6.60;92.30;95026.00;5032445;28;20053;-73
2021/12/25 07:14:17;;;;;;;10.38;5.07;;;;;;;6.62;91.85;95032.66;5033378;28;20056;-73
2021/12/25 07:16:44;;;;;;;8.93;5.80;;;;;;;6.64;91.88;95032.38;5051459;28;20056;-73
2021/12/25 07:19:15;;;;;;;7.78;5.07;;;;;;;6.67;91.75;95039.81;5052672;28;20049;-73
2021/12/25 07:21:42;;;;;;;8.50;5.07;;;;;;;6.68;91.53;95044.09;5051979;28;20052;-73
2021/12/25 07:24:11;;;;;;;7.13;5.05;;;;;;;6.65;90.65;95058.28;5052643;28;20045;-72
2021/12/25 07:26:39;;;;;;;6.53;4.25;;;;;;;6.58;90.86;95068.81;5051924;28;20049;-73
2021/12/25 07:29:06;;;;;;;6.80;4.25;;;;;;;6.49;90.95;95066.16;5052078;28;20045;-73
2021/12/25 07:31:32;;;;;;;5.95;4.03;;;;;;;6.45;90.95;95063.28;5052427;28;20041;-73
2021/12/25 07:33:59;;;;;;;8.35;4.70;;;;;;;6.50;91.19;95073.94;5052929;28;20052;-73
2021/12/25 07:36:25;;;;;;;6.82;4.22;;;;;;;6.51;91.02;95066.59;5052396;28;20052;-73
2021/12/25 07:38:53;;;;;;;8.00;5.07;;;;;;;6.48;91.05;95057.25;5052910;28;20052;-73
2021/12/25 07:41:21;;;;;;;8.35;5.03;;;;;;;6.47;90.85;95066.47;5052356;28;20221;-74
2021/12/25 07:43:48;;;;;;;12.25;6.55;;;;;;;6.45;90.87;95079.50;5052819;28;20045;-72
2021/12/25 07:46:15;;;;;;;12.30;6.45;;;;;;;6.46;91.18;95072.97;5036239;28;20057;-73
2021/12/25 07:48:43;;;;;;;10.57;6.82;;;;;;;6.44;91.40;95061.69;5032645;28;20060;-72
2021/12/25 07:51:09;;;;;;;9.95;6.20;;;;;;;6.43;91.13;95065.53;5032305;28;20045;-72
2021/12/25 07:53:36;;;;;;;12.50;6.18;;;;;;;6.42;91.57;95073.94;5032532;28;20045;-72
2021/12/25 07:56:02;;;;;;;11.57;7.38;;;;;;;6.44;91.44;95061.69;5032354;28;20046;-71
2021/12/25 07:58:30;;;;;;;13.05;7.38;;;;;;;6.48;91.88;95068.06;5032602;28;20033;-74
2021/12/25 08:00:57;;;;;;;11.35;6.65;;;;;;;6.49;91.78;95064.22;5032542;28;20695;-74
2021/12/25 08:03:23;;;;;;;11.27;7.07;;;;;;;6.49;91.86;95056.13;5031978;28;20072;-74
2021/12/25 08:05:50;;;;;;;11.43;7.15;;;;;;;6.52;91.90;95063.59;5032421;28;20049;-72
2021/12/25 08:08:17;;;;;;;13.27;7.60;;;;;;;6.57;92.39;95059.09;5031788;28;20041;-74
2021/12/25 08:10:44;;;;;;;11.00;7.35;;;;;;;6.63;92.16;95057.81;5032474;28;20060;-72
2021/12/25 08:13:13;;;;;;;13.93;8.57;;;;;;;6.67;92.30;95058.75;5031662;28;20042;-72
2021/12/25 08:15:42;;;;;;;13.82;9.30;;;;;;;6.73;92.58;95062.84;5032462;28;20045;-72
2021/12/25 08:18:08;;;;;;;16.52;9.43;;;;;;;6.78;92.28;95059.97;5031864;28;20393;-72
2021/12/25 08:20:35;;;;;;;15.88;9.18;;;;;;;6.80;92.34;95057.75;5032086;28;20664;-75
2021/12/25 08:23:02;;;;;;;13.75;9.23;;;;;;;6.80;92.53;95055.84;5031533;28;20049;-73
2021/12/25 08:25:28;;;;;;;16.02;10.55;;;;;;;6.83;92.43;95067.13;5032140;28;20068;-72
2021/12/25 08:27:55;;;;;;;15.98;10.30;;;;;;;6.85;92.32;95064.91;5031032;28;20041;-72
2021/12/25 08:30:26;;;;;;;18.60;12.18;;;;;;;6.88;92.28;95058.81;5031468;28;20108;-72
2021/12/25 08:32:55;;;;;;;17.35;11.35;;;;;;;6.89;92.35;95066.63;5031870;28;20056;-73
2021/12/25 08:35:23;;;;;;;16.65;11.45;;;;;;;6.90;92.10;95060.09;5031449;28;20053;-73
2021/12/25 08:37:50;;;;;;;15.50;10.50;;;;;;;6.92;92.01;95055.13;5031822;28;20053;-73
2021/12/25 08:40:17;;;;;;;18.33;11.48;;;;;;;6.91;91.97;95058.97;5031279;28;20045;-72
2021/12/25 08:42:48;;;;;;;18.02;10.93;;;;;;;6.90;91.66;95057.38;5031789;28;20045;-72
2021/12/25 08:45:38;;;;;;;17.88;10.68;;;;;;;6.92;91.90;95060.56;5031558;28;20107;-72
2021/12/25 08:48:08;;;;;;;14.75;9.20;;;;;;;6.94;91.59;95052.91;5031222;28;20042;-72
2021/12/25 08:50:35;;;;;;;16.75;10.18;;;;;;;6.93;91.64;95053.22;5031822;28;20132;-72
2021/12/25 08:53:02;;;;;;;17.58;10.70;;;;;;;6.94;91.63;95058.34;5031156;28;20045;-71
2021/12/25 08:55:28;;;;;;;17.38;10.05;;;;;;;6.95;91.71;95054.50;5031642;28;20432;-72
2021/12/25 08:57:55;;;;;;;14.82;9.55;;;;;;;6.95;91.84;95057.22;5031382;28;20049;-72
2021/12/25 09:00:22;;;;;;;14.05;9.27;;;;;;;6.95;91.90;95054.50;5031006;28;20056;-72
2021/12/25 09:02:49;;;;;;;13.43;9.00;;;;;;;6.95;91.70;95046.38;5031517;28;20049;-73
2021/12/25 09:05:17;;;;;;;13.50;8.73;;;;;;;6.96;91.71;95050.66;5031020;28;20079;-72
2021/12/25 09:07:43;;;;;;;12.77;8.20;;;;;;;6.98;92.21;95053.84;5031452;28;20052;-74
2021/12/25 09:10:10;;;;;;;12.13;7.57;;;;;;;7.00;92.18;95056.22;5030912;28;20041;-74
2021/12/25 09:12:40;;;;;;;11.77;7.28;;;;;;;7.01;92.27;95053.19;5030228;28;20060;-74
2021/12/25 09:15:07;;;;;;;9.52;6.72;;;;;;;7.05;92.41;95053.34;5029508;28;20051;-74
2021/12/25 09:17:34;;;;;;;8.50;6.00;;;;;;;7.09;92.53;95053.47;5031261;28;20058;-72
2021/12/25 09:20:00;;;;;;;9.48;6.47;;;;;;;7.10;92.38;95055.03;5031256;28;20049;-72
2021/12/25 09:22:28;;;;;;;10.23;6.47;;;;;;;7.12;92.35;95052.81;5030889;28;20053;-74
2021/12/25 09:24:55;;;;;;;9.52;6.10;;;;;;;7.18;92.32;95056.91;5031296;28;20549;-74
2021/12/25 09:27:21;;;;;;;8.77;5.63;;;;;;;7.18;92.33;95056.91;5030574;28;20059;-72
2021/12/25 09:29:48;;;;;;;10.52;6.43;;;;;;;7.22;92.07;95055.16;5031094;28;20046;-72
2021/12/25 09:32:14;;;;;;;10.60;5.88;;;;;;;7.26;92.28;95058.78;5030667;28;20555;-72
2021/12/25 09:34:41;;;;;;;10.18;5.97;;;;;;;7.32;92.62;95052.06;5031286;28;20043;-72
2021/12/25 09:37:08;;;;;;;9.25;5.00;;;;;;;7.37;92.49;95048.38;5030624;28;20049;-72
2021/12/25 09:39:36;;;;;;;8.63;5.72;;;;;;;7.43;92.21;95047.84;5033435;28;20053;-72
2021/12/25 09:42:03;;;;;;;7.63;5.07;;;;;;;7.45;91.98;95056.41;5034757;28;20041;-72
2021/12/25 09:44:29;;;;;;;8.25;5.55;;;;;;;7.46;91.88;95058.00;5035302;28;20048;-73
2021/12/25 09:46:56;;;;;;;8.18;5.18;;;;;;;7.47;91.55;95050.69;5034926;28;20041;-72
2021/12/25 09:49:22;;;;;;;8.73;5.28;;;;;;;7.48;91.28;95046.84;5034540;28;20493;-74
2021/12/25 09:51:49;;;;;;;8.45;5.63;;;;;;;7.48;90.72;95042.22;5035013;28;20634;-74
2021/12/25 09:54:18;;;;;;;7.03;4.75;;;;;;;7.51;90.43;95044.25;5034293;28;20432;-74
2021/12/25 09:56:49;;;;;;;11.88;5.13;;;;;;;7.53;90.21;95036.63;5034753;28;20088;-74
2021/12/25 09:59:16;;;;;;;5.57;4.07;;;;;;;7.55;90.62;95039.78;5034358;28;20049;-74
2021/12/25 10:01:44;;;;;;;5.00;3.83;;;;;;;7.58;90.68;95041.84;5034913;28;20049;-74
2021/12/25 10:04:29;;;;;;;6.72;4.25;;;;;;;7.60;90.57;95036.06;5034509;28;20050;-74
2021/12/25 10:06:56;;;;;;;8.85;4.30;;;;;;;7.62;90.08;95038.44;5034806;28;20049;-74
2021/12/25 10:09:25;;;;;;;6.15;3.75;;;;;;;7.65;89.91;95038.59;5034182;28;20049;-74
2021/12/25 10:12:00;;;;;;;4.65;3.65;;;;;;;7.67;89.57;95030.13;5034550;28;20526;-74
2021/12/25 10:14:27;;;;;;;4.25;3.00;;;;;;;7.70;89.56;95032.19;5034463;28;20124;-74
2021/12/25 10:16:55;;;;;;;6.80;3.90;;;;;;;7.72;89.51;95033.41;5034411;28;20061;-74
2021/12/25 10:19:23;;;;;;;6.45;3.33;;;;;;;7.77;88.88;95040.56;5033989;28;20080;-74
2021/12/25 10:22:05;;;;;;;5.85;2.92;;;;;;;7.77;88.10;95040.56;5034264;28;20053;-74
2021/12/25 10:24:37;;;;;;;4.95;2.85;;;;;;;7.76;87.99;95034.34;5034182;28;20045;-74
2021/12/25 10:27:14;;;;;;;4.97;2.70;;;;;;;7.72;88.10;95038.03;5033986;28;20053;-74
2021/12/25 10:29:40;;;;;;;5.00;2.85;;;;;;;7.71;88.34;95031.03;5034331;28;20045;-74
2021/12/25 10:32:20;;;;;;;5.47;2.90;;;;;;;7.74;88.51;95030.41;5033575;28;20041;-74
2021/12/25 10:34:47;;;;;;;5.90;2.70;;;;;;;7.77;88.48;95035.13;5034188;28;20045;-74
2021/12/25 10:37:16;;;;;;;5.07;2.90;;;;;;;7.80;88.22;95031.78;5033616;28;20049;-74
2021/12/25 10:39:43;;;;;;;5.55;3.10;;;;;;;7.81;88.17;95031.44;5034197;28;20046;-74
2021/12/25 10:42:17;;;;;;;6.82;3.40;;;;;;;7.87;88.84;95029.31;5033766;28;20475;-74
2021/12/25 10:44:46;;;;;;;5.60;2.97;;;;;;;7.91;88.54;95029.44;5036269;28;20046;-74
2021/12/25 10:47:14;;;;;;;4.80;3.10;;;;;;;7.94;88.69;95026.88;5053530;28;20049;-74
2021/12/25 10:49:43;;;;;;;7.03;3.30;;;;;;;8.02;89.25;95028.69;5053803;28;20045;-74
2021/12/25 10:52:13;;;;;;;7.53;3.50;;;;;;;8.07;89.01;95025.78;5052568;28;20048;-74
2021/12/25 10:54:46;;;;;;;4.68;3.17;;;;;;;8.13;88.32;95025.56;5053814;28;20045;-74
2021/12/25 10:57:30;;;;;;;5.80;2.97;;;;;;;8.17;88.62;95027.28;5053277;28;20045;-74
2021/12/25 10:59:57;;;;;;;5.15;2.75;;;;;;;8.22;88.93;95028.97;5053620;28;20114;-74
2021/12/25 11:02:36;;;;;;;5.00;2.55;;;;;;;8.26;88.73;95035.34;5053140;28;20052;-74
2021/12/25 11:05:16;;;;;;;5.20;2.83;;;;;;;8.30;88.66;95031.63;5053116;28;20381;-73
2021/12/25 11:07:43;;;;;;;6.18;2.45;;;;;;;8.30;88.69;95037.03;5053226;28;20645;-75
2021/12/25 11:10:12;;;;;;;3.33;2.47;;;;;;;8.31;88.10;95043.25;5053021;28;20407;-74
2021/12/25 11:12:40;;;;;;;4.43;2.08;;;;;;;8.30;87.91;95052.50;5053511;28;20045;-74
2021/12/25 11:15:12;;;;;;;4.15;2.30;;;;;;;8.29;88.12;95042.78;5052824;28;20389;-74
2021/12/25 11:17:41;;;;;;;3.58;2.08;;;;;;;8.29;87.92;95045.50;5053387;28;20450;-74
2021/12/25 11:20:17;;;;;;;3.63;2.13;;;;;;;8.29;88.15;95051.69;5052773;28;20052;-76
2021/12/25 11:22:50;;;;;;;4.38;2.50;;;;;;;8.23;87.65;95052.25;5053089;28;20052;-75
2021/12/25 11:25:18;;;;;;;3.78;2.28;;;;;;;8.19;88.38;95054.03;5052735;28;20044;-74
2021/12/25 11:27:46;;;;;;;3.20;2.30;;;;;;;8.11;88.26;95040.25;5053155;28;20061;-75
2021/12/25 11:30:13;;;;;;;4.82;2.55;;;;;;;8.10;88.36;95048.72;5052561;28;20049;-74
2021/12/25 11:32:40;;;;;;;5.03;2.90;;;;;;;8.04;88.78;95047.34;5053118;28;20052;-74
2021/12/25 11:35:08;;;;;;;5.53;3.03;;;;;;;7.98;88.87;95046.75;5052428;28;20045;-74
2021/12/25 11:37:35;;;;;;;5.72;3.05;;;;;;;8.01;88.64;95051.50;5052988;28;20132;-74
2021/12/25 11:40:02;;;;;;;4.78;2.80;;;;;;;7.99;88.72;95042.13;5052475;28;20045;-74
2021/12/25 11:42:29;;;;;;;5.35;3.13;;;;;;;8.00;88.99;95044.50;5052894;28;20053;-74
2021/12/25 11:45:11;;;;;;;6.88;3.08;;;;;;;8.03;89.19;95043.81;5049173;28;20419;-74
2021/12/25 11:47:40;;;;;;;6.32;2.90;;;;;;;8.03;89.03;95043.81;5032611;28;20041;-74
2021/12/25 11:50:10;;;;;;;4.80;2.50;;;;;;;8.03;88.80;95045.75;5032204;28;20512;-74
2021/12/25 11:52:43;;;;;;;3.70;2.30;;;;;;;8.05;88.99;95035.38;5032789;28;20041;-74
2021/12/25 11:58:20;;;;;;;3.10;2.00;;;;;;;8.13;88.76;95036.41;5031921;28;20049;-74
2021/12/25 12:00:50;;;;;;;6.28;2.55;;;;;;;8.20;88.72;95033.97;5032626;28;20045;-75
2021/12/25 12:03:39;;;;;;;4.72;2.30;;;;;;;8.29;87.79;95030.00;5031135;28;20045;-74
2021/12/25 12:06:06;;;;;;;5.07;2.30;;;;;;;8.38;87.56;95032.66;5032031;28;20053;-75
2021/12/25 12:09:08;;;;;;;3.72;2.22;;;;;;;8.42;87.09;95030.88;5032435;28;20064;-72
2021/12/25 12:11:36;;;;;;;4.05;2.17;;;;;;;8.43;85.92;95029.75;5032415;28;20076;-74
2021/12/25 12:14:15;;;;;;;4.63;2.40;;;;;;;8.45;85.73;95035.59;5031804;28;20049;-72
2021/12/25 12:16:45;;;;;;;4.40;2.50;;;;;;;8.42;85.82;95036.31;5032718;28;20052;-74
2021/12/25 12:19:51;;;;;;;4.30;2.30;;;;;;;8.40;85.16;95041.25;5031765;28;20060;-74
2021/12/25 12:25:30;;;;;;;3.80;2.25;;;;;;;8.38;85.32;95040.00;5031771;28;20052;-74
2021/12/25 12:27:58;;;;;;;4.80;2.17;;;;;;;8.39;85.07;95036.97;5032087;28;20050;-74
2021/12/25 12:30:53;;;;;;;3.60;2.00;;;;;;;8.45;85.72;95043.75;5031395;28;20034;-74
2021/12/25 12:33:38;;;;;;;3.97;2.08;;;;;;;8.50;84.96;95043.53;5007013;28;20056;-74
2021/12/25 12:36:22;;;;;;;6.10;2.13;;;;;;;8.52;84.49;95041.28;5031386;28;20045;-73
2021/12/25 12:38:54;;;;;;;6.15;2.20;;;;;;;8.56;84.33;95050.34;5031904;28;20057;-74
2021/12/25 12:41:32;;;;;;;3.15;2.03;;;;;;;8.57;84.16;95051.94;5031302;28;20456;-74
2021/12/25 12:44:05;;;;;;;7.50;2.35;;;;;;;8.59;84.35;95060.50;5031624;28;20050;-74